Los Alamitos Army Air Field
KSLI : now visible

Airfield :











YOU CAN JOIN US ON...

 
LOGIN :

Register | Disclaimer

   EN    FR    IT 

 









Legend :    VFR   Marginal VFR   IFR   Intensive IFR   Very Intensive IFR
Visi :
Ceiling :
>= 8 km
>= 3000ft
5 to 8 km
1000 to 3000 ft
1500m to 5 km
500 to 1000 ft
800 to 1500m
200 to 500 ft
< 800m
< 200 ft
Symbols :   Thunderstorms  Fog  Heavy snow  Heavy precipitations  Wind > 20 kt






- Airport Elevation : 32 ft


KSLI - Los Alamitos Army Air Field

CURRENT METAR :
  • 150758Z AUTO 00000KT 10SM CLR 10/10 A2992 RMK AO2 SLPNO T01040104 401760101 PNO $

EXPIRED METARs :
  • 150658Z AUTO 00000KT 10SM CLR 11/11 A2992 RMK AO2 SLPNO T01140114 PNO $
  • 150558Z AUTO 00000KT 10SM CLR 12/12 A2991 RMK AO2 SLPNO T01180116 10176 20118 53003 PNO $

TAF TAF KSLI
Valid from the 15 at 05:00 until the 16 at 11:00 UTC


150510Z 1505/1611 VRB06KT 9999 SCT030 QNH2988INS
TEMPO 1505/1512 BKN030
BECMG 1518/1519 29012KT 9999 SKC QNH2998INS
BECMG 1602/1603 VRB06KT 9999 SCT250 QNH3002INS TX17/1522Z TN10/1513Z



MET'MAP, your aeronautical weather chart ! - Copyright ORBIFLY December 2007 - Disclaimer

ORBIFLY MET'MAP TEAM :

Programming & Development : Alexandra Zaïnal
Concept & original design : Baudouin d'Aumeries
Assistance for programming : Marc-Olivier Méhu
Technical & hardware support : Manuel Goepfert

Contact : metmap@orbifly.com




SOURCES & CREDITS :

   NOAA       Earth
Advisory